Time;durP1;ratioP1;P1;durP2;ratioP2;P2;SDS_P1;SDS_P2;PMS_P1;PMS_P2;Temp;Humidity;BMP_temperature;BMP_pressure;BME280_temperature;BME280_humidity;BME280_pressure;Samples;Min_cycle;Max_cycle;Signal;HPM_P1;HPM_P2
2022/09/10 00:00:59;;;;;;;0.20;0.15;;;;;;;27.74;nan;99354.63;5091397;28;20105;-57
2022/09/10 00:03:28;;;;;;;0.10;0.10;;;;;;;27.73;nan;99355.84;5091038;28;20101;-61
2022/09/10 00:05:53;;;;;;;0.13;0.10;;;;;;;27.74;nan;99353.84;5091610;28;20040;-57
2022/09/10 00:08:20;;;;;;;0.35;0.30;;;;;;;27.76;nan;99359.81;5091229;28;20032;-57
2022/09/10 00:10:49;;;;;;;0.20;0.20;;;;;;;27.75;nan;99358.22;5091526;28;20048;-61
2022/09/10 00:13:19;;;;;;;0.20;0.20;;;;;;;27.70;nan;99351.84;5090414;28;20543;-62
2022/09/10 00:15:48;;;;;;;0.20;0.20;;;;;;;27.73;nan;99355.06;5090316;28;20506;-58
2022/09/10 00:18:15;;;;;;;0.20;0.20;;;;;;;27.73;nan;99350.22;5091084;28;20098;-61
2022/09/10 00:20:50;;;;;;;0.10;0.10;;;;;;;27.73;nan;99355.84;5091625;28;20044;-61
2022/09/10 00:23:18;;;;;;;0.10;0.10;;;;;;;27.72;nan;99351.44;5090902;28;20059;-61
2022/09/10 00:25:45;;;;;;;0.10;0.10;;;;;;;27.73;nan;99350.22;5091510;28;20448;-57
2022/09/10 00:28:10;;;;;;;0.22;0.20;;;;;;;27.71;nan;99358.25;5091520;28;20393;-57
2022/09/10 00:30:40;;;;;;;1.17;0.30;;;;;;;27.73;nan;99358.66;5091230;28;20036;-61
2022/09/10 00:33:05;;;;;;;0.30;0.30;;;;;;;27.74;nan;99356.66;5091241;28;20044;-61
2022/09/10 00:35:32;;;;;;;0.20;0.20;;;;;;;27.70;nan;99351.06;5091329;28;20047;-57
2022/09/10 00:37:57;;;;;;;0.35;0.20;;;;;;;27.70;nan;99354.66;5091059;28;20098;-63
2022/09/10 00:40:23;;;;;;;0.22;0.17;;;;;;;27.71;nan;99349.84;5088743;28;20068;-61
2022/09/10 00:42:48;;;;;;;0.17;0.17;;;;;;;27.70;nan;99351.84;5081388;28;20086;-61
2022/09/10 00:45:35;;;;;;;0.13;0.10;;;;;;;27.69;nan;99350.25;5079459;28;20397;-57
2022/09/10 00:48:06;;;;;;;0.20;0.20;;;;;;;27.70;nan;99351.84;5078262;28;20044;-57
2022/09/10 00:50:37;;;;;;;0.22;0.20;;;;;;;27.70;nan;99340.59;5076878;28;20129;-61
2022/09/10 00:53:07;;;;;;;0.25;0.20;;;;;;;27.69;nan;99344.66;5091080;28;20044;-57
2022/09/10 00:55:35;;;;;;;0.20;0.20;;;;;;;27.70;nan;99345.44;5090898;28;20550;-61
2022/09/10 00:58:03;;;;;;;0.38;0.30;;;;;;;27.69;nan;99338.22;5082784;28;20047;-61
2022/09/10 01:00:30;;;;;;;0.32;0.20;;;;;;;27.70;nan;99348.25;5090550;28;20044;-61
2022/09/10 01:02:57;;;;;;;0.20;0.20;;;;;;;27.67;nan;99338.66;5090539;28;20052;-57
2022/09/10 01:05:24;;;;;;;0.15;0.10;;;;;;;27.69;nan;99338.22;5089916;28;20040;-61
2022/09/10 01:07:51;;;;;;;0.20;0.10;;;;;;;27.69;nan;99336.22;5090860;28;20127;-61
2022/09/10 01:10:22;;;;;;;0.17;0.17;;;;;;;27.69;nan;99339.03;5090478;28;20178;-61
2022/09/10 01:13:06;;;;;;;0.22;0.10;;;;;;;27.70;nan;99337.00;5077728;28;20051;-61
2022/09/10 01:16:13;;;;;;;0.10;0.10;;;;;;;27.65;nan;99335.47;5090518;28;20101;-61
2022/09/10 01:18:44;;;;;;;0.10;0.10;;;;;;;27.69;nan;99341.03;5090046;28;20377;-61
2022/09/10 01:21:14;;;;;;;0.20;0.10;;;;;;;27.67;nan;99340.66;5090162;28;20059;-61
2022/09/10 01:23:57;;;;;;;0.20;0.10;;;;;;;27.66;nan;99344.69;5090367;28;20045;-61
2022/09/10 01:26:26;;;;;;;0.10;0.10;;;;;;;27.65;nan;99341.06;5078103;28;20082;-61
2022/09/10 01:29:04;;;;;;;0.20;0.20;;;;;;;27.64;nan;99333.84;5090576;28;20079;-57
2022/09/10 01:31:46;;;;;;;0.13;0.10;;;;;;;27.64;nan;99333.84;5077013;28;20048;-61
2022/09/10 01:34:20;;;;;;;0.10;0.10;;;;;;;27.61;nan;99331.88;5090401;28;20047;-62
2022/09/10 01:36:47;;;;;;;0.17;0.10;;;;;;;27.64;nan;99338.66;5090562;28;20032;-61
2022/09/10 01:39:17;;;;;;;0.20;0.20;;;;;;;27.64;nan;99338.66;5089420;28;20115;-61
2022/09/10 01:41:42;;;;;;;0.13;0.13;;;;;;;27.64;nan;99330.22;5097030;28;20051;-57
2022/09/10 01:44:49;;;;;;;0.17;0.17;;;;;;;27.65;nan;99334.66;5110553;28;20039;-61
2022/09/10 01:47:31;;;;;;;0.47;0.20;;;;;;;27.60;nan;99327.50;5100566;28;20085;-57
2022/09/10 01:50:16;;;;;;;0.45;0.20;;;;;;;27.62;nan;99332.69;5109997;28;20051;-62
2022/09/10 01:53:06;;;;;;;0.22;0.13;;;;;;;27.61;nan;99333.91;5110554;28;20051;-57
2022/09/10 01:55:36;;;;;;;0.52;0.20;;;;;;;27.61;nan;99333.91;5097598;28;20048;-61
2022/09/10 01:58:15;;;;;;;1.95;0.20;;;;;;;27.63;nan;99339.88;5110398;28;20043;-61
2022/09/10 02:00:50;;;;;;;0.10;0.10;;;;;;;27.60;nan;99335.94;5109138;28;20039;-62
2022/09/10 02:03:20;;;;;;;0.20;0.20;;;;;;;27.63;nan;99334.28;5109953;28;20587;-61
2022/09/10 02:05:49;;;;;;;0.30;0.10;;;;;;;27.58;nan;99329.16;5110289;28;20074;-61
2022/09/10 02:08:19;;;;;;;0.10;0.10;;;;;;;27.62;nan;99335.50;5109969;28;20583;-62
2022/09/10 02:10:54;;;;;;;0.13;0.10;;;;;;;27.60;nan;99335.13;5110446;28;20078;-61
2022/09/10 02:13:22;;;;;;;0.15;0.15;;;;;;;27.59;nan;99328.72;5110358;28;20036;-61
2022/09/10 02:15:50;;;;;;;0.20;0.20;;;;;;;27.58;nan;99329.94;5108587;28;20036;-61
2022/09/10 02:18:15;;;;;;;0.10;0.10;;;;;;;27.60;nan;99321.09;5109905;28;20474;-61
2022/09/10 02:20:41;;;;;;;0.10;0.10;;;;;;;27.60;nan;99324.69;5109822;28;20122;-57
2022/09/10 02:23:07;;;;;;;0.17;0.10;;;;;;;27.60;nan;99329.50;5109549;28;20035;-57
2022/09/10 02:25:33;;;;;;;0.10;0.10;;;;;;;27.59;nan;99325.13;5109739;28;20046;-57
2022/09/10 02:27:59;;;;;;;0.35;0.20;;;;;;;27.58;nan;99318.69;5110016;28;20134;-57
2022/09/10 02:30:25;;;;;;;0.30;0.20;;;;;;;27.59;nan;99322.31;5109469;28;20134;-62
2022/09/10 02:32:50;;;;;;;0.45;0.30;;;;;;;27.59;nan;99325.13;5109784;28;20504;-61
2022/09/10 02:35:15;;;;;;;0.22;0.20;;;;;;;27.58;nan;99326.34;5109881;28;20054;-57
2022/09/10 02:37:42;;;;;;;0.30;0.20;;;;;;;27.59;nan;99325.91;5109601;28;20579;-57
2022/09/10 02:40:10;;;;;;;0.40;0.20;;;;;;;27.59;nan;99317.47;5110018;28;20104;-61
2022/09/10 02:42:36;;;;;;;0.68;0.13;;;;;;;27.58;nan;99317.91;5109465;28;20054;-61
2022/09/10 02:45:01;;;;;;;0.17;0.10;;;;;;;27.59;nan;99311.84;5109617;28;20040;-61
2022/09/10 02:47:27;;;;;;;0.22;0.20;;;;;;;27.56;nan;99306.28;5109205;28;20079;-57
2022/09/10 02:49:53;;;;;;;0.22;0.10;;;;;;;27.60;nan;99313.44;5109236;28;20039;-61
2022/09/10 02:52:18;;;;;;;0.10;0.10;;;;;;;27.60;nan;99309.84;5109447;28;20389;-57
2022/09/10 02:54:43;;;;;;;0.20;0.20;;;;;;;27.60;nan;99312.66;5109330;28;20399;-57
2022/09/10 02:57:11;;;;;;;0.52;0.30;;;;;;;27.58;nan;99309.47;5107578;28;20092;-62
2022/09/10 02:59:36;;;;;;;0.10;0.10;;;;;;;27.59;nan;99311.84;5109500;28;20044;-57
2022/09/10 03:02:01;;;;;;;0.40;0.28;;;;;;;27.59;nan;99305.44;5109473;28;20040;-62
2022/09/10 03:04:27;;;;;;;0.32;0.10;;;;;;;27.58;nan;99303.84;5108789;28;20044;-57
2022/09/10 03:06:53;;;;;;;0.20;0.20;;;;;;;27.54;nan;99300.28;5109211;28;20038;-57
2022/09/10 03:09:19;;;;;;;0.38;0.20;;;;;;;27.53;nan;99296.69;5109003;28;20036;-57
2022/09/10 03:11:45;;;;;;;0.30;0.20;;;;;;;27.57;nan;99305.06;5109257;28;20080;-61
2022/09/10 03:14:18;;;;;;;0.20;0.17;;;;;;;27.55;nan;99301.88;5106219;28;20059;-61
2022/09/10 03:16:44;;;;;;;0.10;0.10;;;;;;;27.58;nan;99303.84;5109486;28;20039;-61
2022/09/10 03:19:09;;;;;;;0.32;0.25;;;;;;;27.56;nan;99306.28;5109081;28;20097;-57
2022/09/10 03:21:35;;;;;;;0.20;0.20;;;;;;;27.58;nan;99301.06;5109066;28;20036;-57
2022/09/10 03:24:00;;;;;;;0.10;0.10;;;;;;;27.57;nan;99305.84;5108872;28;20089;-57
2022/09/10 03:26:25;;;;;;;0.10;0.10;;;;;;;27.59;nan;99299.81;5109006;28;20043;-61
2022/09/10 03:28:51;;;;;;;0.13;0.13;;;;;;;27.57;nan;99308.66;5111513;28;20035;-57
2022/09/10 03:31:17;;;;;;;0.40;0.20;;;;;;;27.58;nan;99306.66;5112773;28;20093;-61
2022/09/10 03:33:42;;;;;;;0.40;0.20;;;;;;;27.56;nan;99303.47;5112508;28;20453;-61
2022/09/10 03:36:10;;;;;;;0.40;0.20;;;;;;;27.60;nan;99309.84;5112812;28;20047;-62
2022/09/10 03:38:36;;;;;;;0.63;0.20;;;;;;;27.60;nan;99312.66;5113041;28;20383;-62
2022/09/10 03:41:01;;;;;;;0.57;0.30;;;;;;;27.57;nan;99305.06;5112519;28;20035;-57
2022/09/10 03:43:27;;;;;;;0.17;0.10;;;;;;;27.54;nan;99303.09;5112509;28;20519;-57
2022/09/10 03:45:53;;;;;;;0.10;0.10;;;;;;;27.54;nan;99308.72;5112180;28;20154;-57
2022/09/10 03:48:20;;;;;;;0.10;0.10;;;;;;;27.57;nan;99313.47;5111573;28;20040;-57
2022/09/10 03:50:45;;;;;;;0.20;0.13;;;;;;;27.56;nan;99321.13;5112509;28;20048;-60
2022/09/10 03:53:12;;;;;;;0.32;0.30;;;;;;;27.55;nan;99313.13;5112156;28;20105;-61
2022/09/10 03:55:41;;;;;;;0.20;0.20;;;;;;;27.55;nan;99321.53;5112301;28;20507;-57
2022/09/10 03:58:06;;;;;;;0.10;0.10;;;;;;;27.57;nan;99316.28;5112229;28;20093;-57
2022/09/10 04:00:32;;;;;;;0.30;0.15;;;;;;;27.57;nan;99324.72;5112186;28;20038;-59
2022/09/10 04:02:59;;;;;;;0.38;0.25;;;;;;;27.58;nan;99320.72;5112063;28;20056;-61
2022/09/10 04:05:26;;;;;;;0.22;0.20;;;;;;;27.55;nan;99316.72;5112029;28;20052;-61
2022/09/10 04:07:53;;;;;;;0.10;0.10;;;;;;;27.57;nan;99331.13;5112424;28;20137;-61
2022/09/10 04:10:20;;;;;;;0.10;0.10;;;;;;;27.56;nan;99320.31;5107689;28;20039;-61
2022/09/10 04:12:47;;;;;;;0.20;0.20;;;;;;;27.57;nan;99330.34;5098979;28;20036;-61
2022/09/10 04:15:12;;;;;;;0.30;0.28;;;;;;;27.54;nan;99320.75;5111956;28;20055;-61
2022/09/10 04:17:38;;;;;;;0.22;0.20;;;;;;;27.56;nan;99334.38;5111689;28;20032;-57
2022/09/10 04:20:03;;;;;;;0.13;0.13;;;;;;;27.55;nan;99325.16;5112008;28;20035;-57
2022/09/10 04:22:29;;;;;;;0.15;0.10;;;;;;;27.53;nan;99327.59;5111288;28;20047;-57
2022/09/10 04:24:54;;;;;;;0.20;0.10;;;;;;;27.53;nan;99326.81;5111936;28;20124;-62
2022/09/10 04:27:21;;;;;;;0.15;0.10;;;;;;;27.53;nan;99330.41;5111751;28;20063;-57
2022/09/10 04:29:46;;;;;;;0.22;0.20;;;;;;;27.53;nan;99327.59;5111491;28;20052;-61
2022/09/10 04:32:12;;;;;;;0.25;0.15;;;;;;;27.52;nan;99328.03;5111607;28;20046;-58
2022/09/10 04:34:37;;;;;;;0.20;0.13;;;;;;;27.53;nan;99329.59;5111587;28;20411;-57
2022/09/10 04:37:03;;;;;;;0.30;0.30;;;;;;;27.55;nan;99327.16;5111680;28;20094;-57
2022/09/10 04:39:28;;;;;;;0.38;0.20;;;;;;;27.53;nan;99330.41;5110234;28;20427;-57
2022/09/10 04:41:54;;;;;;;0.20;0.20;;;;;;;27.56;nan;99335.16;5111685;28;20131;-57
2022/09/10 04:44:19;;;;;;;0.20;0.13;;;;;;;27.53;nan;99333.22;5111121;28;20127;-62
2022/09/10 04:46:46;;;;;;;0.10;0.10;;;;;;;27.57;nan;99338.78;5111379;28;20032;-61
2022/09/10 04:49:12;;;;;;;0.10;0.10;;;;;;;27.56;nan;99346.41;5111501;28;20127;-62
2022/09/10 04:51:37;;;;;;;0.25;0.22;;;;;;;27.52;nan;99336.44;5111439;28;20055;-57
2022/09/10 04:54:02;;;;;;;0.10;0.10;;;;;;;27.54;nan;99354.47;5111471;28;21567;-57
2022/09/10 04:56:28;;;;;;;0.30;0.20;;;;;;;27.52;nan;99339.25;5111113;28;20508;-57
2022/09/10 04:58:53;;;;;;;0.10;0.10;;;;;;;27.52;nan;99342.06;5111024;28;20039;-61
2022/09/10 05:01:18;;;;;;;0.10;0.10;;;;;;;27.53;nan;99346.47;5111182;28;20040;-61
2022/09/10 05:03:44;;;;;;;0.20;0.17;;;;;;;27.51;nan;99351.72;5092478;28;20040;-57
2022/09/10 05:06:10;;;;;;;0.13;0.10;;;;;;;27.53;nan;99352.88;5111274;28;20527;-61
2022/09/10 05:08:35;;;;;;;0.30;0.20;;;;;;;27.55;nan;99349.66;5110899;28;20897;-62
2022/09/10 05:11:01;;;;;;;0.10;0.10;;;;;;;27.55;nan;99346.84;5111282;28;20043;-61
2022/09/10 05:13:30;;;;;;;0.38;0.20;;;;;;;27.52;nan;99356.13;5111235;28;20063;-62
2022/09/10 05:15:57;;;;;;;0.20;0.10;;;;;;;27.54;nan;99359.28;5109361;28;20044;-57
2022/09/10 05:18:24;;;;;;;0.30;0.20;;;;;;;27.53;nan;99352.88;5110848;28;20074;-61
2022/09/10 05:20:50;;;;;;;0.22;0.20;;;;;;;27.53;nan;99346.47;5098334;28;20549;-61
2022/09/10 05:23:17;;;;;;;0.35;0.20;;;;;;;27.55;nan;99355.25;5111009;28;20051;-57
2022/09/10 05:25:46;;;;;;;0.10;0.10;;;;;;;27.51;nan;99349.72;5110579;28;20039;-57
2022/09/10 05:28:12;;;;;;;0.20;0.17;;;;;;;27.52;nan;99356.13;5110797;28;20047;-61
2022/09/10 05:30:37;;;;;;;0.10;0.10;;;;;;;27.49;nan;99356.94;5110401;28;20089;-61
2022/09/10 05:33:03;;;;;;;0.38;0.20;;;;;;;27.51;nan;99362.97;5110669;28;20459;-61
2022/09/10 05:35:29;;;;;;;0.08;0.08;;;;;;;27.51;nan;99360.94;5110711;28;20043;-57
2022/09/10 05:37:59;;;;;;;0.75;0.15;;;;;;;27.51;nan;99357.34;5096634;28;20059;-61
2022/09/10 05:40:25;;;;;;;0.13;0.10;;;;;;;27.53;nan;99363.31;5110472;28;20040;-61
2022/09/10 05:42:52;;;;;;;0.30;0.13;;;;;;;27.54;nan;99364.91;5110300;28;20051;-61
2022/09/10 05:45:19;;;;;;;0.10;0.10;;;;;;;27.52;nan;99375.78;5110675;28;20059;-61
2022/09/10 05:47:45;;;;;;;0.10;0.10;;;;;;;27.51;nan;99372.19;5110271;28;20047;-61
2022/09/10 05:50:16;;;;;;;0.30;0.20;;;;;;;27.50;nan;99372.59;5104982;28;20075;-61
2022/09/10 05:52:41;;;;;;;0.20;0.20;;;;;;;27.47;nan;99363.00;5109423;28;20564;-61
2022/09/10 05:55:07;;;;;;;0.30;0.20;;;;;;;27.49;nan;99368.19;5110070;28;20035;-57
2022/09/10 05:57:33;;;;;;;0.25;0.25;;;;;;;27.52;nan;99367.34;5110305;28;20130;-57
2022/09/10 06:00:00;;;;;;;0.20;0.20;;;;;;;27.50;nan;99372.59;5110094;28;20130;-61
2022/09/10 06:02:25;;;;;;;0.20;0.10;;;;;;;27.44;nan;99369.47;5110053;28;20044;-62
2022/09/10 06:04:51;;;;;;;0.13;0.13;;;;;;;27.29;nan;99376.47;5110345;28;20058;-61
2022/09/10 06:07:16;;;;;;;0.30;0.20;;;;;;;27.19;nan;99369.78;5109949;28;20031;-57
2022/09/10 06:09:42;;;;;;;0.20;0.20;;;;;;;27.16;nan;99381.84;5110507;28;20419;-61
2022/09/10 06:12:07;;;;;;;0.22;0.15;;;;;;;27.15;nan;99383.06;5110046;28;20039;-57
2022/09/10 06:14:33;;;;;;;0.10;0.10;;;;;;;27.12;nan;99375.47;5110088;28;20046;-62
2022/09/10 06:16:58;;;;;;;0.60;0.30;;;;;;;27.13;nan;99372.25;5109759;28;20055;-61
2022/09/10 06:19:24;;;;;;;0.22;0.20;;;;;;;27.15;nan;99383.06;5110337;28;20495;-62
2022/09/10 06:21:51;;;;;;;0.10;0.10;;;;;;;27.11;nan;99385.91;5108169;28;20055;-62
2022/09/10 06:24:18;;;;;;;0.25;0.20;;;;;;;27.08;nan;99383.16;5109588;28;20036;-57
2022/09/10 06:26:49;;;;;;;0.20;0.20;;;;;;;27.06;nan;99379.94;5109922;28;20464;-62
2022/09/10 06:29:17;;;;;;;0.15;0.10;;;;;;;27.10;nan;99389.94;5109389;28;20059;-62
2022/09/10 06:31:42;;;;;;;0.28;0.28;;;;;;;27.08;nan;99389.56;5109982;28;20216;-57
2022/09/10 06:34:08;;;;;;;0.35;0.30;;;;;;;27.10;nan;99389.13;5109845;28;21379;-60
2022/09/10 06:36:34;;;;;;;0.22;0.20;;;;;;;27.09;nan;99395.97;5109669;28;20047;-57
2022/09/10 06:39:00;;;;;;;0.40;0.20;;;;;;;27.09;nan;99399.56;5109671;28;20039;-62
2022/09/10 06:41:29;;;;;;;0.10;0.10;;;;;;;27.09;nan;99396.78;5096980;28;20050;-62
2022/09/10 06:43:55;;;;;;;0.22;0.22;;;;;;;27.08;nan;99397.19;5109588;28;20574;-62
2022/09/10 06:46:21;;;;;;;0.45;0.30;;;;;;;27.09;nan;99396.78;5108883;28;20035;-62
2022/09/10 06:48:47;;;;;;;0.93;0.20;;;;;;;27.12;nan;99406.34;5109560;28;20427;-62
2022/09/10 06:51:13;;;;;;;0.28;0.28;;;;;;;27.06;nan;99405.22;5109917;28;20127;-62
2022/09/10 06:53:40;;;;;;;0.47;0.30;;;;;;;27.05;nan;99406.44;5109035;28;20092;-62
2022/09/10 06:56:09;;;;;;;0.50;0.20;;;;;;;27.09;nan;99407.19;5109591;28;20044;-57
2022/09/10 06:58:35;;;;;;;0.40;0.20;;;;;;;27.14;nan;99420.75;5109012;28;20043;-57
2022/09/10 07:01:13;;;;;;;0.77;0.30;;;;;;;27.13;nan;99417.16;5109205;28;20096;-61
2022/09/10 07:03:40;;;;;;;0.30;0.28;;;;;;;27.14;nan;99407.53;5111338;28;20046;-57
2022/09/10 07:06:08;;;;;;;0.20;0.20;;;;;;;27.17;nan;99416.34;5113039;28;20047;-56
2022/09/10 07:08:34;;;;;;;0.38;0.30;;;;;;;27.15;nan;99414.75;5112475;28;20055;-57
2022/09/10 07:11:02;;;;;;;0.22;0.20;;;;;;;27.17;nan;99416.34;5112775;28;20044;-57
2022/09/10 07:13:27;;;;;;;0.40;0.30;;;;;;;27.19;nan;99425.94;5112062;28;20469;-62
2022/09/10 07:15:53;;;;;;;0.30;0.25;;;;;;;27.16;nan;99418.34;5113081;28;20119;-57
2022/09/10 07:18:18;;;;;;;0.38;0.30;;;;;;;27.21;nan;99417.09;5112955;28;20411;-62
2022/09/10 07:20:44;;;;;;;0.30;0.20;;;;;;;27.20;nan;99429.53;5112926;28;20050;-57
2022/09/10 07:23:16;;;;;;;0.20;0.20;;;;;;;27.15;nan;99422.38;5112544;28;20493;-57
2022/09/10 07:25:41;;;;;;;0.10;0.10;;;;;;;27.15;nan;99437.22;5111478;28;20168;-57
2022/09/10 07:28:11;;;;;;;0.40;0.32;;;;;;;27.14;nan;99432.00;5112826;28;20043;-57
2022/09/10 07:30:38;;;;;;;0.20;0.20;;;;;;;27.18;nan;99418.72;5112556;28;20051;-62
2022/09/10 07:33:04;;;;;;;0.38;0.38;;;;;;;27.17;nan;99419.94;5112694;28;20512;-57
2022/09/10 07:35:30;;;;;;;0.45;0.35;;;;;;;27.20;nan;99421.91;5112339;28;20039;-57
2022/09/10 07:37:55;;;;;;;0.40;0.28;;;;;;;27.17;nan;99433.97;5112648;28;20044;-62
2022/09/10 07:40:22;;;;;;;0.25;0.25;;;;;;;27.18;nan;99424.34;5112395;28;20039;-62
2022/09/10 07:42:47;;;;;;;0.43;0.30;;;;;;;27.20;nan;99424.72;5112046;28;20036;-61
2022/09/10 07:45:15;;;;;;;0.47;0.38;;;;;;;27.17;nan;99428.38;5112624;28;20035;-62
2022/09/10 07:47:43;;;;;;;0.45;0.30;;;;;;;27.14;nan;99427.19;5111861;28;20066;-62
2022/09/10 07:50:09;;;;;;;0.40;0.30;;;;;;;27.09;nan;99433.25;5103698;28;20054;-57
2022/09/10 07:52:35;;;;;;;0.30;0.30;;;;;;;27.11;nan;99439.25;5112149;28;20051;-61
2022/09/10 07:55:00;;;;;;;0.25;0.25;;;;;;;27.10;nan;99439.69;5112112;28;20700;-61
2022/09/10 07:57:25;;;;;;;0.32;0.30;;;;;;;27.11;nan;99433.63;5112300;28;20134;-57
2022/09/10 07:59:52;;;;;;;0.38;0.28;;;;;;;27.13;nan;99441.63;5111797;28;20031;-62
2022/09/10 08:02:19;;;;;;;0.20;0.20;;;;;;;27.08;nan;99433.69;5112439;28;20042;-62
2022/09/10 08:04:45;;;;;;;0.90;0.35;;;;;;;27.07;nan;99437.69;5111682;28;20055;-62
2022/09/10 08:07:11;;;;;;;0.20;0.20;;;;;;;27.10;nan;99440.47;5111702;28;20418;-57
2022/09/10 08:09:36;;;;;;;0.30;0.30;;;;;;;27.12;nan;99440.03;5111971;28;20039;-57
2022/09/10 08:12:02;;;;;;;0.57;0.40;;;;;;;27.15;nan;99436.41;5111763;28;20044;-57
2022/09/10 08:14:28;;;;;;;0.28;0.20;;;;;;;27.13;nan;99438.84;5111872;28;20574;-57
2022/09/10 08:16:54;;;;;;;0.35;0.22;;;;;;;27.13;nan;99425.59;5112164;28;20507;-62
2022/09/10 08:19:20;;;;;;;0.30;0.30;;;;;;;27.16;nan;99432.41;5111397;28;20071;-62
2022/09/10 08:21:46;;;;;;;0.20;0.20;;;;;;;27.15;nan;99433.63;5112078;28;20142;-62
2022/09/10 08:24:12;;;;;;;0.43;0.20;;;;;;;27.18;nan;99431.97;5111688;28;20135;-56
2022/09/10 08:26:37;;;;;;;0.50;0.40;;;;;;;27.20;nan;99438.75;5111461;28;20122;-57
2022/09/10 08:29:03;;;;;;;0.40;0.30;;;;;;;27.22;nan;99432.72;5111899;28;20522;-57
2022/09/10 08:31:28;;;;;;;0.50;0.20;;;;;;;27.21;nan;99431.13;5109409;28;20067;-62
2022/09/10 08:33:55;;;;;;;0.28;0.20;;;;;;;27.18;nan;99441.19;5102161;28;20076;-62
2022/09/10 08:36:21;;;;;;;0.20;0.20;;;;;;;27.17;nan;99430.38;5111246;28;20105;-62
2022/09/10 08:38:49;;;;;;;0.10;0.10;;;;;;;27.21;nan;99434.72;5111261;28;21419;-57
2022/09/10 08:41:39;;;;;;;0.35;0.28;;;;;;;27.24;nan;99445.13;5111202;28;20280;-62
2022/09/10 08:44:12;;;;;;;0.40;0.32;;;;;;;27.26;nan;99439.09;5111285;28;20060;-57
2022/09/10 08:46:56;;;;;;;;;;;;;;;27.31;nan;99441.44;5111976;28;20043;-57
2022/09/10 08:49:36;;;;;;;0.20;0.20;;;;;;;27.23;nan;99435.13;5099468;28;19916;-57
2022/09/10 08:52:19;;;;;;;1.13;0.30;;;;;;;27.22;nan;99436.34;5098148;28;20039;-61
2022/09/10 08:55:10;;;;;;;0.22;0.20;;;;;;;27.23;nan;99428.72;5111414;28;20507;-63
2022/09/10 08:57:44;;;;;;;0.43;0.30;;;;;;;27.17;nan;99421.97;5111115;28;20047;-62
2022/09/10 09:00:17;;;;;;;0.32;0.28;;;;;;;27.18;nan;99423.53;5110992;28;20042;-62
2022/09/10 09:03:20;;;;;;;0.30;0.22;;;;;;;27.20;nan;99427.53;5111565;28;20092;-62
2022/09/10 09:05:48;;;;;;;0.23;0.23;;;;;;;27.21;nan;99426.31;5098570;28;20044;-61
2022/09/10 09:08:39;;;;;;;0.20;0.20;;;;;;;27.19;nan;99420.31;5111245;28;20050;-57
2022/09/10 09:11:11;;;;;;;0.20;0.20;;;;;;;27.24;nan;99410.66;5099476;28;20490;-57
2022/09/10 09:13:54;;;;;;;0.10;0.10;;;;;;;27.24;nan;99411.44;5111196;28;20078;-57
2022/09/10 09:16:44;;;;;;;0.20;0.20;;;;;;;27.20;nan;99405.06;5111011;28;20047;-62
2022/09/10 09:19:21;;;;;;;0.30;0.20;;;;;;;27.23;nan;99397.81;5110533;28;20058;-62
2022/09/10 09:21:51;;;;;;;0.28;0.28;;;;;;;27.25;nan;99392.56;5110772;28;20062;-57
2022/09/10 09:24:43;;;;;;;0.20;0.20;;;;;;;27.26;nan;99397.75;5110457;28;20040;-62
2022/09/10 09:27:18;;;;;;;0.32;0.25;;;;;;;27.26;nan;99396.97;5110460;28;20052;-57
2022/09/10 09:30:18;;;;;;;0.30;0.20;;;;;;;27.30;nan;99392.91;5110621;28;20146;-56
2022/09/10 09:32:46;;;;;;;0.20;0.20;;;;;;;27.29;nan;99387.69;5056105;28;20084;-62
2022/09/10 09:35:29;;;;;;;0.30;0.20;;;;;;;27.31;nan;99388.88;5110695;28;20047;-57
2022/09/10 09:38:06;;;;;;;0.20;0.20;;;;;;;27.28;nan;99378.47;5110314;28;20046;-61
2022/09/10 09:40:45;;;;;;;0.30;0.30;;;;;;;27.29;nan;99385.72;5096546;28;20116;-57
2022/09/10 09:43:26;;;;;;;0.15;0.15;;;;;;;27.26;nan;99385.75;5090196;28;20048;-62
2022/09/10 09:45:52;;;;;;;0.30;0.20;;;;;;;27.23;nan;99381.75;5089077;28;20047;-57
2022/09/10 09:48:20;;;;;;;0.20;0.13;;;;;;;27.30;nan;99387.28;5086640;28;20040;-62
2022/09/10 09:50:48;;;;;;;0.20;0.10;;;;;;;27.32;nan;99386.88;5084590;28;20055;-62
2022/09/10 09:53:20;;;;;;;0.10;0.10;;;;;;;27.32;nan;99379.25;5089855;28;20557;-62
2022/09/10 09:55:52;;;;;;;0.30;0.20;;;;;;;27.32;nan;99376.44;5090091;28;20059;-62
2022/09/10 09:58:20;;;;;;;0.20;0.20;;;;;;;27.33;nan;99378.03;5089831;28;20032;-62
2022/09/10 10:00:48;;;;;;;0.30;0.20;;;;;;;27.32;nan;99368.00;5090068;28;20650;-60
2022/09/10 10:03:21;;;;;;;0.17;0.17;;;;;;;27.36;nan;99365.13;5089727;28;20428;-61
2022/09/10 10:05:47;;;;;;;0.20;0.20;;;;;;;27.40;nan;99374.31;5090288;28;20503;-57
2022/09/10 10:08:27;;;;;;;0.30;0.20;;;;;;;27.37;nan;99364.75;5089975;28;20047;-62
2022/09/10 10:10:53;;;;;;;0.20;0.10;;;;;;;27.35;nan;99357.94;5089350;28;20078;-57
2022/09/10 10:13:22;;;;;;;0.10;0.10;;;;;;;27.37;nan;99353.50;5089989;28;20135;-57
2022/09/10 10:15:48;;;;;;;0.20;0.20;;;;;;;27.36;nan;99349.09;5089979;28;20047;-61
2022/09/10 10:18:30;;;;;;;0.30;0.30;;;;;;;27.38;nan;99355.09;5089801;28;20475;-57
2022/09/10 10:21:14;;;;;;;0.45;0.13;;;;;;;27.37;nan;99350.69;5075977;28;20115;-57
2022/09/10 10:23:40;;;;;;;0.20;0.17;;;;;;;27.36;nan;99348.28;5089310;28;20067;-57
2022/09/10 10:26:21;;;;;;;0.22;0.17;;;;;;;27.39;nan;99353.06;5089707;28;20032;-57
2022/09/10 10:28:49;;;;;;;0.20;0.10;;;;;;;27.42;nan;99353.00;5089542;28;20100;-57
2022/09/10 10:31:15;;;;;;;0.10;0.10;;;;;;;27.38;nan;99337.44;5089646;28;20115;-61
2022/09/10 10:34:00;;;;;;;0.22;0.22;;;;;;;27.44;nan;99335.75;5089383;28;20481;-61
2022/09/10 10:36:42;;;;;;;0.10;0.10;;;;;;;27.48;nan;99332.88;5088956;28;20059;-61
2022/09/10 10:39:23;;;;;;;0.20;0.10;;;;;;;27.40;nan;99321.75;5088752;28;20496;-59
2022/09/10 10:41:57;;;;;;;0.20;0.20;;;;;;;27.45;nan;99328.91;5089438;28;20561;-62
2022/09/10 10:44:35;;;;;;;0.40;0.20;;;;;;;27.46;nan;99307.25;5088993;28;20040;-62
2022/09/10 10:47:20;;;;;;;0.20;0.10;;;;;;;27.50;nan;99305.16;5089347;28;20032;-61
2022/09/10 10:50:17;;;;;;;0.10;0.10;;;;;;;27.50;nan;99310.78;5059670;28;20429;-62
2022/09/10 10:53:06;;;;;;;2.80;0.20;;;;;;;27.45;nan;99305.66;5085324;28;20052;-61
2022/09/10 10:55:49;;;;;;;0.40;0.30;;;;;;;27.40;nan;99299.28;5089002;28;20401;-57
2022/09/10 10:58:32;;;;;;;0.17;0.17;;;;;;;27.45;nan;99306.44;5089253;28;20173;-61
2022/09/10 11:01:15;;;;;;;0.10;0.10;;;;;;;27.49;nan;99300.75;5079344;28;20044;-57
2022/09/10 11:03:43;;;;;;;;;;;;;;;27.53;nan;99291.06;5089694;28;20051;-61
2022/09/10 11:06:16;;;;;;;0.20;0.20;;;;;;;27.53;nan;99290.28;5089268;28;19924;-60
2022/09/10 11:08:58;;;;;;;0.28;0.20;;;;;;;27.54;nan;99286.25;5089097;28;20044;-57
2022/09/10 11:11:23;;;;;;;0.10;0.10;;;;;;;27.55;nan;99276.59;5089035;28;20051;-58
2022/09/10 11:13:55;;;;;;;0.17;0.10;;;;;;;27.51;nan;99271.03;5089135;28;20044;-62
2022/09/10 11:16:44;;;;;;;0.15;0.15;;;;;;;27.52;nan;99277.44;5089239;28;20924;-57
2022/09/10 11:19:34;;;;;;;0.30;0.20;;;;;;;27.53;nan;99262.97;5088801;28;20040;-57
2022/09/10 11:22:18;;;;;;;0.20;0.20;;;;;;;27.53;nan;99265.78;5088847;28;20044;-57
2022/09/10 11:25:28;;;;;;;0.10;0.10;;;;;;;27.57;nan;99274.94;5078609;28;20048;-61
2022/09/10 11:28:03;;;;;;;0.10;0.10;;;;;;;27.57;nan;99271.34;5082016;28;20039;-58
2022/09/10 11:30:31;;;;;;;0.40;0.10;;;;;;;27.57;nan;99274.94;5079474;28;20413;-59
2022/09/10 11:33:08;;;;;;;0.10;0.10;;;;;;;27.59;nan;99271.72;5068861;28;20086;-61
2022/09/10 11:35:43;;;;;;;0.10;0.00;;;;;;;27.61;nan;99260.84;5068917;28;20072;-62
2022/09/10 11:38:58;;;;;;;0.20;0.10;;;;;;;27.61;nan;99260.84;5068653;28;20541;-61
2022/09/10 11:41:27;;;;;;;0.10;0.10;;;;;;;27.57;nan;99243.25;5053446;28;20439;-62
2022/09/10 11:44:15;;;;;;;0.13;0.10;;;;;;;27.61;nan;99252.41;5068714;28;20052;-62
2022/09/10 11:46:59;;;;;;;0.17;0.10;;;;;;;27.61;nan;99258.84;5068649;28;20060;-62
2022/09/10 11:49:52;;;;;;;0.10;0.10;;;;;;;27.61;nan;99249.59;5070626;28;20049;-57
2022/09/10 11:52:20;;;;;;;0.10;0.10;;;;;;;27.60;nan;99254.44;5072215;28;20527;-62
2022/09/10 11:54:46;;;;;;;0.40;0.20;;;;;;;27.61;nan;99246.81;5077276;28;20075;-63
2022/09/10 11:57:25;;;;;;;0.88;0.40;;;;;;;27.52;nan;99252.16;5085497;28;20048;-63
2022/09/10 12:00:10;;;;;;;0.80;0.30;;;;;;;27.36;nan;99249.97;5091647;28;20411;-57
2022/09/10 12:02:42;;;;;;;1.13;0.40;;;;;;;27.38;nan;99262.41;5088469;28;20143;-64
2022/09/10 12:05:28;;;;;;;2.15;0.55;;;;;;;27.38;nan;99259.59;5089356;28;20071;-57
2022/09/10 12:08:11;;;;;;;1.48;0.45;;;;;;;27.46;nan;99251.06;5091651;28;20051;-64